Terminal Aerodrome Forecast
Issued by NWS

Home | Current Version | Previous Version | Text Only | Print | Product List | Glossary On
Versions: 1 2 3 4 5 6 7 8 9 10 11 12 13 14
000
FTUS43 KEAX 052300
TAFSTJ
TAF
KSTJ 052320Z 0600/0624 17011KT P6SM SCT150
     FM061700 20014G22KT P6SM SCT050
     FM062000 20014G22KT P6SM VCTS BKN040CB
     FM062300 27010G20KT 4SM TSRA BKN035CB=

USA.gov is the U.S. government's official web portal to all federal, state and local government web resources and services.